Time;durP1;ratioP1;P1;durP2;ratioP2;P2;SDS_P1;SDS_P2;PMS_P1;PMS_P2;Temp;Humidity;BMP_temperature;BMP_pressure;BME280_temperature;BME280_humidity;BME280_pressure;Samples;Min_cycle;Max_cycle;Signal;HPM_P1;HPM_P2
2022/05/07 00:01:12;;;;;;;50.67;30.13;;;11.50;99.90;;;;;;5114586;27;20492;-65
2022/05/07 00:03:38;;;;;;;46.97;30.90;;;11.40;99.90;;;;;;5113908;27;20040;-66
2022/05/07 00:06:04;;;;;;;50.85;31.55;;;11.50;99.90;;;;;;5113282;27;20093;-66
2022/05/07 00:08:31;;;;;;;48.28;31.10;;;11.50;99.90;;;;;;5124121;27;20441;-65
2022/05/07 00:10:57;;;;;;;50.35;29.65;;;11.50;99.90;;;;;;5103164;27;20049;-66
2022/05/07 00:13:23;;;;;;;51.72;32.25;;;11.60;99.90;;;;;;5109405;27;20144;-66
2022/05/07 00:18:32;;;;;;;51.33;30.83;;;11.50;99.90;;;;;;5121766;27;20054;-66
2022/05/07 00:20:58;;;;;;;53.20;33.08;;;11.50;99.90;;;;;;5121519;27;20036;-66
2022/05/07 00:23:24;;;;;;;49.97;32.90;;;11.50;99.90;;;;;;5122534;27;20043;-65
2022/05/07 00:25:50;;;;;;;47.03;29.88;;;11.50;99.90;;;;;;5115352;27;20042;-65
2022/05/07 00:28:15;;;;;;;50.83;32.25;;;11.50;99.90;;;;;;5126514;27;20141;-65
2022/05/07 00:30:41;;;;;;;54.08;32.40;;;11.50;99.90;;;;;;5119550;27;20082;-65
2022/05/07 00:33:06;;;;;;;54.22;32.42;;;11.50;99.90;;;;;;5110840;28;20047;-65
2022/05/07 00:35:32;;;;;;;49.72;32.00;;;11.50;99.90;;;;;;5087863;28;20055;-65
2022/05/07 00:38:00;;;;;;;47.95;31.30;;;11.50;99.90;;;;;;5112956;27;20393;-65
2022/05/07 00:40:26;;;;;;;55.03;34.30;;;11.50;99.90;;;;;;5117683;27;20050;-65
2022/05/07 00:42:52;;;;;;;51.38;31.88;;;11.50;99.90;;;;;;5123411;27;20434;-66
2022/05/07 00:45:17;;;;;;;48.97;31.55;;;11.60;99.90;;;;;;5111208;28;20039;-66
2022/05/07 00:47:43;;;;;;;53.20;30.40;;;11.60;99.90;;;;;;5117892;27;20454;-66
2022/05/07 00:52:54;;;;;;;47.58;28.65;;;11.60;99.90;;;;;;5121255;27;20047;-65
2022/05/07 00:55:21;;;;;;;53.03;32.20;;;11.60;99.90;;;;;;5114133;27;20043;-66
2022/05/07 00:57:47;;;;;;;53.45;33.50;;;11.60;99.90;;;;;;5113034;27;20043;-66
2022/05/07 01:00:13;;;;;;;56.17;35.33;;;11.60;99.90;;;;;;5131343;27;20070;-65
2022/05/07 01:02:38;;;;;;;51.88;31.70;;;11.70;99.90;;;;;;5098062;28;20397;-66
2022/05/07 01:05:08;;;;;;;57.38;34.40;;;11.70;99.90;;;;;;5121453;27;20522;-66
2022/05/07 01:07:34;;;;;;;59.72;35.38;;;11.70;99.90;;;;;;5117403;27;20047;-66
2022/05/07 01:10:01;;;;;;;57.72;34.53;;;11.70;99.90;;;;;;5116467;27;20047;-66
2022/05/07 01:12:27;;;;;;;59.90;34.80;;;11.80;99.90;;;;;;5112474;28;20063;-65
2022/05/07 01:14:56;;;;;;;55.72;33.80;;;11.90;99.90;;;;;;5125623;27;20047;-65
2022/05/07 01:17:21;;;;;;;57.20;33.42;;;11.80;99.90;;;;;;5131556;27;20807;-65
2022/05/07 01:19:50;;;;;;;60.97;36.03;;;11.80;99.90;;;;;;5122613;27;20091;-66
2022/05/07 01:22:16;;;;;;;55.20;33.20;;;11.80;99.90;;;;;;5117903;27;20536;-65
2022/05/07 01:24:42;;;;;;;64.10;34.92;;;11.90;99.90;;;;;;5116826;27;20051;-66
2022/05/07 01:27:07;;;;;;;58.88;34.17;;;11.90;99.90;;;;;;5112224;27;20052;-66
2022/05/07 01:29:33;;;;;;;56.08;32.50;;;11.90;99.90;;;;;;5111009;27;20044;-65
2022/05/07 01:31:59;;;;;;;57.25;35.78;;;11.90;99.90;;;;;;5093677;28;20039;-66
2022/05/07 01:34:24;;;;;;;58.30;35.45;;;11.90;99.90;;;;;;5112938;27;20035;-66
2022/05/07 01:36:50;;;;;;;55.15;34.45;;;12.00;99.90;;;;;;5113820;27;20098;-66
2022/05/07 01:39:16;;;;;;;60.97;36.38;;;11.90;99.90;;;;;;5131302;27;20072;-66
2022/05/07 01:41:41;;;;;;;54.28;34.42;;;11.90;99.90;;;;;;5114303;27;20075;-66
2022/05/07 01:44:07;;;;;;;55.92;33.53;;;12.00;99.90;;;;;;5120162;27;20548;-66
2022/05/07 01:49:17;;;;;;;54.80;33.78;;;12.00;99.90;;;;;;5124834;27;20499;-65
2022/05/07 01:51:43;;;;;;;62.90;36.30;;;12.10;99.90;;;;;;5092493;28;20126;-65
2022/05/07 01:54:08;;;;;;;56.53;33.13;;;12.10;99.90;;;;;;5128722;27;20046;-66
2022/05/07 01:56:34;;;;;;;50.80;32.65;;;12.00;99.90;;;;;;5116034;27;20052;-66
2022/05/07 01:58:59;;;;;;;55.72;34.45;;;12.00;99.90;;;;;;5119942;27;20127;-65
2022/05/07 02:01:25;;;;;;;49.97;31.80;;;12.00;99.90;;;;;;5117048;27;20501;-66
2022/05/07 02:03:51;;;;;;;54.53;32.10;;;12.10;99.90;;;;;;5111696;27;20053;-65
2022/05/07 02:06:17;;;;;;;55.40;33.50;;;12.10;99.90;;;;;;5129924;27;20571;-65
2022/05/07 02:08:43;;;;;;;51.67;32.80;;;12.10;99.90;;;;;;5111133;27;20047;-66
2022/05/07 02:11:09;;;;;;;56.42;33.33;;;12.10;99.90;;;;;;5127507;27;20079;-65
2022/05/07 02:13:34;;;;;;;52.00;34.20;;;12.10;99.90;;;;;;5128510;27;20078;-65
2022/05/07 02:16:01;;;;;;;57.80;34.95;;;12.10;99.90;;;;;;5128728;27;20399;-65
2022/05/07 02:18:26;;;;;;;49.75;33.38;;;12.30;99.90;;;;;;5129430;27;20081;-66
2022/05/07 02:20:53;;;;;;;52.28;32.58;;;12.10;99.90;;;;;;5128023;27;20051;-66
2022/05/07 02:23:20;;;;;;;58.33;33.13;;;12.10;99.90;;;;;;5128285;27;20043;-66
2022/05/07 02:25:46;;;;;;;52.03;34.33;;;12.10;99.90;;;;;;5102957;28;20511;-66
2022/05/07 02:28:11;;;;;;;48.65;33.67;;;12.20;99.90;;;;;;5110695;27;20043;-66
2022/05/07 02:30:37;;;;;;;50.03;33.47;;;12.10;99.90;;;;;;5117036;27;20422;-66
2022/05/07 02:33:03;;;;;;;52.65;33.58;;;12.10;99.90;;;;;;5129494;27;20134;-66
2022/05/07 02:35:28;;;;;;;54.10;32.40;;;12.10;99.90;;;;;;5120117;27;20046;-65
2022/05/07 02:37:54;;;;;;;46.55;31.13;;;12.20;99.90;;;;;;5108825;27;20043;-66
2022/05/07 02:40:20;;;;;;;47.92;31.95;;;12.10;99.90;;;;;;5108760;28;20270;-66
2022/05/07 02:42:46;;;;;;;52.33;32.28;;;12.10;99.90;;;;;;5109782;28;20039;-66
2022/05/07 02:45:13;;;;;;;52.30;33.53;;;12.20;99.90;;;;;;5109333;28;20043;-66
2022/05/07 02:47:41;;;;;;;44.60;29.80;;;12.10;99.90;;;;;;5110907;27;20050;-66
2022/05/07 02:50:09;;;;;;;47.70;30.15;;;12.10;99.90;;;;;;5110051;27;20131;-66
2022/05/07 02:52:36;;;;;;;51.70;30.80;;;12.10;99.90;;;;;;5119952;27;20458;-67
2022/05/07 02:55:03;;;;;;;46.75;30.15;;;12.00;99.90;;;;;;5126773;27;20396;-66
2022/05/07 02:57:29;;;;;;;45.20;31.67;;;12.10;99.90;;;;;;5128809;27;20047;-65
2022/05/07 02:59:55;;;;;;;41.33;30.35;;;12.00;99.90;;;;;;5123880;27;20586;-65
2022/05/07 03:02:21;;;;;;;43.00;29.10;;;12.00;99.90;;;;;;5127796;27;20047;-65
2022/05/07 03:04:48;;;;;;;38.70;28.13;;;12.00;99.90;;;;;;5103722;28;20051;-65
2022/05/07 03:07:14;;;;;;;44.05;28.95;;;11.90;99.90;;;;;;5116409;27;20035;-66
2022/05/07 03:09:40;;;;;;;42.35;29.10;;;11.90;99.90;;;;;;5130150;27;20039;-65
2022/05/07 03:12:06;;;;;;;41.25;29.05;;;11.80;99.90;;;;;;5126724;27;20051;-65
2022/05/07 03:14:32;;;;;;;42.47;28.77;;;11.80;99.90;;;;;;5113674;27;20511;-65
2022/05/07 03:16:58;;;;;;;41.67;28.45;;;11.80;99.90;;;;;;5118371;27;20349;-65
2022/05/07 03:19:24;;;;;;;45.42;30.38;;;11.80;99.90;;;;;;5118303;27;20035;-65
2022/05/07 03:21:50;;;;;;;39.10;28.33;;;11.70;99.90;;;;;;5129191;27;20039;-66
2022/05/07 03:24:16;;;;;;;39.00;29.88;;;11.70;99.90;;;;;;5108008;28;20116;-65
2022/05/07 03:26:41;;;;;;;38.15;28.70;;;11.60;99.90;;;;;;5111834;27;20044;-66
2022/05/07 03:29:07;;;;;;;39.95;28.20;;;11.60;99.90;;;;;;5109584;27;20043;-66
2022/05/07 03:31:33;;;;;;;42.20;29.52;;;11.60;99.90;;;;;;5121156;27;20118;-65
2022/05/07 03:33:59;;;;;;;40.85;27.90;;;11.60;99.90;;;;;;5116761;27;20043;-65
2022/05/07 03:36:24;;;;;;;39.58;27.90;;;11.60;99.90;;;;;;5128086;27;20453;-66
2022/05/07 03:38:50;;;;;;;38.65;27.08;;;11.60;99.90;;;;;;5127693;27;20043;-66
2022/05/07 03:41:16;;;;;;;40.05;27.73;;;11.60;99.90;;;;;;5128447;27;20190;-66
2022/05/07 03:43:41;;;;;;;36.22;26.38;;;11.60;99.90;;;;;;5119912;28;20052;-66
2022/05/07 03:46:08;;;;;;;38.20;27.02;;;11.60;99.90;;;;;;5111332;28;20039;-65
2022/05/07 03:48:34;;;;;;;39.67;28.48;;;11.60;99.90;;;;;;5122358;28;20039;-66
2022/05/07 03:51:00;;;;;;;40.65;27.52;;;11.60;99.90;;;;;;5126711;27;20400;-66
2022/05/07 03:53:32;;;;;;;40.17;26.25;;;11.60;99.90;;;;;;5126541;28;20047;-65
2022/05/07 03:56:06;;;;;;;40.80;27.15;;;11.50;99.90;;;;;;5117217;28;20052;-66
2022/05/07 03:58:32;;;;;;;39.55;25.88;;;11.50;99.90;;;;;;5114583;28;20417;-65
2022/05/07 04:00:59;;;;;;;40.17;28.23;;;11.50;99.90;;;;;;5113567;28;20079;-65
2022/05/07 04:03:25;;;;;;;38.55;26.13;;;11.50;99.90;;;;;;5127728;28;20533;-65
2022/05/07 04:05:51;;;;;;;37.08;26.00;;;11.50;99.90;;;;;;5111036;28;20396;-65
2022/05/07 04:08:17;;;;;;;44.03;29.80;;;11.50;99.90;;;;;;5112494;28;20047;-65
2022/05/07 04:10:43;;;;;;;38.78;26.33;;;11.50;99.90;;;;;;5121836;27;20089;-65
2022/05/07 04:13:10;;;;;;;38.55;28.67;;;11.50;99.90;;;;;;5116471;28;20048;-66
2022/05/07 04:15:37;;;;;;;36.15;26.15;;;11.50;99.90;;;;;;5100171;28;20043;-66
2022/05/07 04:18:06;;;;;;;37.42;27.05;;;11.60;99.90;;;;;;5126380;28;20047;-66
2022/05/07 04:20:31;;;;;;;38.42;26.58;;;11.60;99.90;;;;;;5117803;27;20055;-67
2022/05/07 04:22:57;;;;;;;36.22;25.92;;;11.60;99.90;;;;;;5096831;28;20491;-66
2022/05/07 04:25:23;;;;;;;39.00;26.60;;;11.60;99.90;;;;;;5115124;28;20068;-66
2022/05/07 04:27:49;;;;;;;38.00;25.90;;;11.60;99.90;;;;;;5114317;28;20032;-66
2022/05/07 04:30:14;;;;;;;37.67;26.58;;;11.60;99.90;;;;;;5109167;28;20499;-66
2022/05/07 04:32:40;;;;;;;33.95;25.52;;;11.60;99.90;;;;;;5112444;28;20476;-66
2022/05/07 04:35:06;;;;;;;37.13;26.67;;;11.70;99.90;;;;;;5117382;27;20042;-66
2022/05/07 04:37:32;;;;;;;34.92;25.30;;;11.70;99.90;;;;;;5121590;28;20051;-66
2022/05/07 04:40:01;;;;;;;40.10;27.85;;;11.70;99.90;;;;;;5091073;28;20048;-66
2022/05/07 04:42:26;;;;;;;37.05;28.33;;;11.70;99.90;;;;;;5111473;28;20052;-66
2022/05/07 04:44:52;;;;;;;36.75;27.55;;;11.70;99.90;;;;;;5127645;27;20047;-65
2022/05/07 04:47:18;;;;;;;39.35;27.25;;;12.00;99.90;;;;;;5121163;27;20039;-66
2022/05/07 04:49:43;;;;;;;36.22;26.40;;;11.70;99.90;;;;;;5124710;27;20388;-66
2022/05/07 04:52:10;;;;;;;37.20;26.48;;;11.70;99.90;;;;;;5124155;27;20052;-66
2022/05/07 04:54:36;;;;;;;41.35;28.27;;;11.80;99.90;;;;;;5114803;27;20052;-65
2022/05/07 04:57:02;;;;;;;37.25;27.35;;;11.80;99.90;;;;;;5113373;27;20408;-65
2022/05/07 04:59:28;;;;;;;35.47;26.35;;;11.80;99.90;;;;;;5094078;27;20293;-66
2022/05/07 05:01:54;;;;;;;37.05;27.60;;;11.80;99.90;;;;;;5111705;27;20103;-66
2022/05/07 05:04:20;;;;;;;39.53;27.40;;;11.90;99.90;;;;;;5121155;27;20071;-65
2022/05/07 05:06:46;;;;;;;37.55;27.52;;;11.90;99.90;;;;;;5117456;27;20380;-65
2022/05/07 05:09:15;;;;;;;37.88;28.65;;;11.90;99.90;;;;;;5126434;27;20047;-65
2022/05/07 05:11:40;;;;;;;39.28;27.58;;;12.00;99.90;;;;;;5127018;27;20047;-65
2022/05/07 05:16:51;;;;;;;38.13;28.63;;;12.00;99.90;;;;;;5123959;27;20077;-65
2022/05/07 05:19:17;;;;;;;40.10;28.70;;;12.10;99.90;;;;;;5128420;27;20438;-66
2022/05/07 05:21:43;;;;;;;40.95;28.90;;;12.10;99.90;;;;;;5129396;27;20047;-66
2022/05/07 05:24:09;;;;;;;37.78;27.98;;;12.10;99.90;;;;;;5126960;27;20134;-66
2022/05/07 05:26:35;;;;;;;43.85;30.23;;;12.20;99.90;;;;;;5130193;27;20399;-66
2022/05/07 05:29:01;;;;;;;46.90;31.63;;;12.20;99.90;;;;;;5128873;27;20567;-66
2022/05/07 05:31:28;;;;;;;44.63;30.50;;;12.20;99.90;;;;;;5126069;27;20122;-66
2022/05/07 05:33:54;;;;;;;46.13;31.77;;;12.20;99.90;;;;;;5127145;27;20511;-66
2022/05/07 05:36:20;;;;;;;47.22;31.50;;;12.30;99.90;;;;;;5111455;27;20046;-66
2022/05/07 05:38:46;;;;;;;42.38;31.00;;;12.30;99.90;;;;;;5125638;27;20492;-65
2022/05/07 05:41:12;;;;;;;41.03;31.13;;;12.30;99.90;;;;;;5130187;27;20042;-65
2022/05/07 05:43:38;;;;;;;42.83;31.85;;;12.30;99.90;;;;;;5121538;27;20486;-66
2022/05/07 05:46:03;;;;;;;43.30;31.38;;;12.40;99.90;;;;;;5120546;27;20054;-65
2022/05/07 05:48:29;;;;;;;45.80;31.23;;;12.40;99.90;;;;;;5115656;27;20064;-65
2022/05/07 05:50:56;;;;;;;46.95;32.45;;;12.60;99.90;;;;;;5125349;27;20035;-65
2022/05/07 05:53:21;;;;;;;40.72;30.65;;;12.70;99.90;;;;;;5122439;27;20035;-65
2022/05/07 05:55:47;;;;;;;40.50;29.55;;;13.00;99.90;;;;;;5118254;27;20392;-65
2022/05/07 05:58:13;;;;;;;40.33;29.95;;;13.20;99.90;;;;;;5115459;27;20074;-66
2022/05/07 06:00:39;;;;;;;44.00;30.45;;;13.40;99.90;;;;;;5113551;27;20436;-65
2022/05/07 06:03:04;;;;;;;43.50;29.33;;;13.50;99.90;;;;;;5103869;27;20050;-65
2022/05/07 06:05:30;;;;;;;42.17;31.50;;;13.60;99.90;;;;;;5122431;27;20035;-65
2022/05/07 06:07:56;;;;;;;43.28;30.02;;;13.60;99.90;;;;;;5117861;27;20048;-66
2022/05/07 06:10:22;;;;;;;45.85;31.88;;;13.50;99.90;;;;;;5112301;27;20039;-66
2022/05/07 06:12:48;;;;;;;41.47;30.95;;;13.50;99.90;;;;;;5109802;27;20043;-66
2022/05/07 06:15:13;;;;;;;43.03;30.17;;;13.50;99.90;;;;;;5113867;27;20055;-66
2022/05/07 06:17:39;;;;;;;45.45;29.85;;;13.60;99.90;;;;;;5116634;27;20050;-66
2022/05/07 06:20:06;;;;;;;42.15;29.48;;;13.70;99.90;;;;;;5120580;27;20044;-67
2022/05/07 06:22:32;;;;;;;38.65;28.83;;;13.80;99.90;;;;;;5107887;27;20036;-66
2022/05/07 06:27:42;;;;;;;40.25;27.13;;;14.40;99.90;;;;;;5123714;27;20047;-66
2022/05/07 06:30:08;;;;;;;40.75;29.23;;;14.40;99.90;;;;;;5124746;27;20047;-66
2022/05/07 06:32:35;;;;;;;37.13;27.65;;;14.40;99.90;;;;;;5117776;27;20047;-65
2022/05/07 06:35:03;;;;;;;39.38;28.98;;;14.40;99.90;;;;;;5123961;27;20046;-66
2022/05/07 06:37:32;;;;;;;35.17;26.58;;;14.50;99.90;;;;;;5121975;27;20062;-65
2022/05/07 06:39:58;;;;;;;39.20;28.98;;;14.60;99.90;;;;;;5123298;27;20128;-65
2022/05/07 06:42:24;;;;;;;34.15;25.52;;;14.80;99.90;;;;;;5112811;27;20044;-66
2022/05/07 06:44:50;;;;;;;35.28;24.10;;;15.00;99.90;;;;;;5104747;27;20042;-66
2022/05/07 06:47:16;;;;;;;30.88;23.48;;;15.10;99.90;;;;;;5108263;27;20054;-66
2022/05/07 06:49:45;;;;;;;34.58;23.83;;;15.10;99.90;;;;;;5112499;27;20050;-66
2022/05/07 06:52:11;;;;;;;33.25;23.85;;;15.10;99.90;;;;;;5116139;27;20075;-63
2022/05/07 06:54:37;;;;;;;37.30;24.88;;;15.20;99.90;;;;;;5098768;27;20172;-68
2022/05/07 06:57:03;;;;;;;32.50;24.13;;;15.30;99.90;;;;;;5100793;27;20084;-65
2022/05/07 06:59:30;;;;;;;35.55;25.45;;;15.50;99.90;;;;;;5105487;27;20463;-65
2022/05/07 07:01:56;;;;;;;34.35;24.70;;;15.70;99.90;;;;;;5106029;27;20072;-65
2022/05/07 07:04:22;;;;;;;31.30;24.05;;;16.00;99.90;;;;;;5106970;27;20179;-65
2022/05/07 07:06:49;;;;;;;31.75;23.90;;;16.20;99.90;;;;;;5108187;27;20423;-65
2022/05/07 07:09:15;;;;;;;30.83;23.10;;;16.50;99.90;;;;;;5112656;27;20571;-65
2022/05/07 07:11:40;;;;;;;33.05;24.77;;;16.80;99.90;;;;;;5079339;27;20035;-66
2022/05/07 07:14:06;;;;;;;31.77;24.05;;;16.90;99.90;;;;;;5095004;27;20047;-66
2022/05/07 07:16:32;;;;;;;30.60;22.90;;;17.00;99.90;;;;;;5108677;27;20096;-65
2022/05/07 07:19:00;;;;;;;29.77;22.77;;;17.00;99.90;;;;;;5104349;27;20046;-66
2022/05/07 07:21:26;;;;;;;32.75;23.10;;;17.00;99.90;;;;;;5102779;27;20193;-66
2022/05/07 07:23:52;;;;;;;27.75;22.45;;;17.00;99.90;;;;;;5082850;27;20056;-66
2022/05/07 07:26:18;;;;;;;30.77;23.00;;;17.00;99.90;;;;;;5102545;27;20119;-65
2022/05/07 07:28:44;;;;;;;30.40;22.45;;;17.00;99.90;;;;;;5096957;27;20047;-67
2022/05/07 07:31:10;;;;;;;29.17;23.27;;;17.00;99.90;;;;;;5098980;27;20492;-66
2022/05/07 07:33:41;;;;;;;31.35;23.17;;;17.00;99.90;;;;;;5095494;27;20043;-67
2022/05/07 07:36:07;;;;;;;;;;;17.10;99.90;;;;;;5099817;27;20039;-65
2022/05/07 07:38:33;;;;;;;29.65;23.42;;;17.00;99.90;;;;;;5100665;27;19954;-66
2022/05/07 07:41:02;;;;;;;30.67;23.17;;;17.00;99.90;;;;;;5102323;27;20043;-67
2022/05/07 07:43:31;;;;;;;32.72;22.77;;;17.10;99.90;;;;;;5072895;28;20086;-65
2022/05/07 07:48:46;;;;;;;30.73;21.67;;;17.30;99.90;;;;;;5068396;28;20047;-65
2022/05/07 07:51:12;;;;;;;30.65;23.52;;;17.30;99.90;;;;;;5092013;27;20050;-66
2022/05/07 07:53:38;;;;;;;33.85;24.05;;;17.50;99.90;;;;;;5100254;28;20070;-66
2022/05/07 07:56:04;;;;;;;29.95;22.85;;;17.50;99.90;;;;;;5105011;27;20094;-65
2022/05/07 07:58:30;;;;;;;31.40;23.25;;;17.60;99.90;;;;;;5100495;28;20118;-65
2022/05/07 08:00:55;;;;;;;33.33;24.60;;;17.60;99.90;;;;;;5107106;28;20118;-66
2022/05/07 08:03:21;;;;;;;32.33;24.65;;;17.50;99.90;;;;;;5110501;28;20062;-65
2022/05/07 08:05:50;;;;;;;34.08;25.10;;;17.50;99.90;;;;;;5107565;27;20055;-65
2022/05/07 08:13:46;;;;;;;39.15;27.35;;;17.30;99.90;;;;;;5110939;27;20058;-65
2022/05/07 08:16:13;;;;;;;43.83;28.00;;;17.10;99.90;;;;;;5106664;27;20520;-66
2022/05/07 08:18:41;;;;;;;41.70;27.73;;;17.00;99.90;;;;;;5098741;27;20447;-65
2022/05/07 08:21:08;;;;;;;39.85;28.50;;;16.90;99.90;;;;;;5109476;28;20063;-65
2022/05/07 08:23:35;;;;;;;39.83;28.20;;;16.70;99.90;;;;;;5113654;27;20128;-65
2022/05/07 08:26:04;;;;;;;38.08;26.50;;;16.70;99.90;;;;;;5118408;27;20051;-66
2022/05/07 08:28:30;;;;;;;39.70;28.58;;;16.60;99.90;;;;;;5124300;27;20054;-65
2022/05/07 08:30:57;;;;;;;36.83;26.77;;;16.50;99.90;;;;;;5109741;27;20051;-66
2022/05/07 08:33:23;;;;;;;43.70;30.27;;;16.40;99.90;;;;;;5131180;27;20130;-65
2022/05/07 08:35:49;;;;;;;44.67;30.83;;;16.30;99.90;;;;;;5132074;27;20145;-65
2022/05/07 08:38:15;;;;;;;45.53;31.58;;;16.20;99.90;;;;;;5122565;27;20062;-66
2022/05/07 08:40:41;;;;;;;43.55;31.58;;;16.10;99.90;;;;;;5119913;27;20039;-65
2022/05/07 08:43:07;;;;;;;49.63;32.92;;;16.00;99.90;;;;;;5120413;27;20042;-66
2022/05/07 08:45:34;;;;;;;47.35;32.70;;;15.90;99.90;;;;;;5111332;28;20056;-65
2022/05/07 08:48:00;;;;;;;52.60;36.08;;;15.80;99.90;;;;;;5130153;27;20043;-65
2022/05/07 08:50:26;;;;;;;56.78;38.53;;;15.80;99.90;;;;;;5119006;27;20053;-65
2022/05/07 08:52:55;;;;;;;57.35;36.75;;;15.70;99.90;;;;;;5118514;27;20039;-65
2022/05/07 08:55:22;;;;;;;54.15;36.63;;;15.70;99.90;;;;;;5127736;27;20051;-65
2022/05/07 08:57:50;;;;;;;60.15;37.33;;;15.70;99.90;;;;;;5116321;27;20709;-65
2022/05/07 09:00:20;;;;;;;53.13;35.30;;;15.70;99.90;;;;;;5132433;27;20548;-65
2022/05/07 09:02:54;;;;;;;52.25;35.08;;;15.70;99.90;;;;;;5128661;27;20043;-65
2022/05/07 09:05:30;;;;;;;50.63;33.55;;;15.70;99.90;;;;;;5130939;27;20075;-65
2022/05/07 09:07:58;;;;;;;50.33;32.63;;;15.70;99.90;;;;;;5120880;27;20043;-65
2022/05/07 09:10:26;;;;;;;53.05;33.50;;;15.80;99.90;;;;;;5117113;27;20047;-65
2022/05/07 09:12:53;;;;;;;45.85;31.40;;;15.80;99.90;;;;;;5107796;27;20530;-65
2022/05/07 09:15:18;;;;;;;54.28;34.30;;;15.90;99.90;;;;;;5103073;27;20355;-65
2022/05/07 09:17:47;;;;;;;45.03;30.25;;;15.90;99.90;;;;;;5126334;27;20043;-65
2022/05/07 09:20:15;;;;;;;49.83;32.55;;;16.10;99.90;;;;;;5120457;27;20491;-65
2022/05/07 09:23:09;;;;;;;46.53;32.25;;;16.10;99.90;;;;;;5098039;27;20092;-65
2022/05/07 09:25:44;;;;;;;47.83;32.55;;;16.30;99.90;;;;;;5101647;27;20496;-65
2022/05/07 09:28:10;;;;;;;47.63;31.67;;;16.40;99.90;;;;;;5126412;27;20698;-66
2022/05/07 09:30:36;;;;;;;56.22;34.58;;;16.60;99.90;;;;;;5123413;27;20414;-65
2022/05/07 09:33:01;;;;;;;51.70;33.95;;;16.80;99.90;;;;;;5120199;27;20479;-65
2022/05/07 09:35:47;;;;;;;51.92;34.10;;;17.00;99.90;;;;;;5096032;27;20039;-66
2022/05/07 09:38:15;;;;;;;54.45;33.85;;;17.00;99.90;;;;;;5120385;27;20051;-65
2022/05/07 09:40:44;;;;;;;49.10;33.28;;;16.90;99.90;;;;;;5123357;27;20086;-66
2022/05/07 09:43:11;;;;;;;59.47;36.75;;;16.70;99.90;;;;;;5121659;27;20051;-65
2022/05/07 09:45:39;;;;;;;63.33;36.03;;;16.50;99.90;;;;;;5114590;27;20062;-66
2022/05/07 09:48:06;;;;;;;53.33;35.47;;;16.40;99.90;;;;;;5123347;27;20438;-66
2022/05/07 09:58:43;;;;;;;49.42;32.53;;;16.60;99.90;;;;;;5117545;27;20058;-66
2022/05/07 10:01:20;;;;;;;49.40;33.22;;;16.80;99.90;;;;;;5123565;27;20310;-66
2022/05/07 10:04:07;;;;;;;45.33;31.20;;;17.00;99.90;;;;;;5110659;28;20043;-66
2022/05/07 10:06:53;;;;;;;46.58;29.85;;;17.10;99.90;;;;;;5110179;28;20039;-66
2022/05/07 10:09:42;;;;;;;42.35;30.65;;;17.30;99.90;;;;;;5112014;27;20044;-66
2022/05/07 10:12:15;;;;;;;46.92;30.65;;;17.40;99.90;;;;;;5122782;27;20062;-66
2022/05/07 10:14:42;;;;;;;42.03;29.85;;;17.50;99.90;;;;;;5112302;27;20043;-66
2022/05/07 10:17:09;;;;;;;46.42;29.63;;;17.40;99.90;;;;;;5119103;27;20059;-66
2022/05/07 10:19:36;;;;;;;44.67;29.10;;;17.30;99.90;;;;;;5121534;27;20051;-66
2022/05/07 10:22:02;;;;;;;46.38;31.77;;;17.20;99.90;;;;;;5109067;28;20047;-66
2022/05/07 10:24:30;;;;;;;48.00;30.48;;;17.10;99.90;;;;;;5124676;27;20039;-66
2022/05/07 10:26:56;;;;;;;46.63;30.90;;;17.00;99.90;;;;;;5126054;27;20495;-66
2022/05/07 10:29:30;;;;;;;55.45;32.70;;;16.90;99.90;;;;;;5108486;27;20142;-66
2022/05/07 10:32:03;;;;;;;59.08;36.65;;;16.80;99.90;;;;;;5120462;27;20051;-66
2022/05/07 10:34:29;;;;;;;67.07;42.13;;;16.60;99.90;;;;;;5112173;27;20062;-66
2022/05/07 10:37:00;;;;;;;68.57;40.58;;;16.50;99.90;;;;;;5111012;27;20035;-66
2022/05/07 10:39:26;;;;;;;61.85;38.63;;;16.40;99.90;;;;;;5109170;28;20047;-66
2022/05/07 10:41:52;;;;;;;63.47;40.92;;;16.40;99.90;;;;;;5109164;27;20052;-66
2022/05/07 10:44:32;;;;;;;64.40;41.55;;;16.40;99.90;;;;;;5119939;27;20035;-66
2022/05/07 10:47:12;;;;;;;64.50;40.50;;;16.50;99.90;;;;;;5122764;27;20039;-66
2022/05/07 10:49:59;;;;;;;62.70;40.03;;;16.70;99.90;;;;;;5095244;28;20051;-67
2022/05/07 10:52:33;;;;;;;63.50;41.33;;;16.80;99.90;;;;;;5111700;27;20047;-66
2022/05/07 10:55:17;;;;;;;65.00;40.55;;;17.00;99.90;;;;;;5098417;27;20126;-66
2022/05/07 10:57:48;;;;;;;62.78;39.80;;;17.00;99.90;;;;;;5115998;27;20415;-66
2022/05/07 11:00:21;;;;;;;63.57;39.17;;;17.00;99.90;;;;;;5125897;27;20046;-66
2022/05/07 11:02:49;;;;;;;62.60;38.22;;;16.90;99.90;;;;;;5117702;27;20515;-66
2022/05/07 11:05:15;;;;;;;58.92;36.63;;;16.70;99.90;;;;;;5110685;27;20522;-66
2022/05/07 11:07:43;;;;;;;60.50;37.22;;;16.60;99.90;;;;;;5126300;27;20055;-66
2022/05/07 11:10:10;;;;;;;56.67;35.42;;;16.60;99.90;;;;;;5128094;27;20464;-67
2022/05/07 11:12:36;;;;;;;59.08;36.55;;;16.50;99.90;;;;;;5128694;27;20539;-65
2022/05/07 11:15:07;;;;;;;54.83;34.92;;;16.50;99.90;;;;;;5108666;28;20063;-65
2022/05/07 11:17:35;;;;;;;51.70;31.90;;;16.50;99.90;;;;;;5109073;27;20463;-65
2022/05/07 11:20:02;;;;;;;52.17;33.15;;;16.50;99.90;;;;;;5122732;27;20047;-65
2022/05/07 11:22:31;;;;;;;52.75;33.08;;;16.50;99.90;;;;;;5113106;27;20039;-65
2022/05/07 11:24:59;;;;;;;50.25;31.20;;;16.50;99.90;;;;;;5119685;27;20039;-65
2022/05/07 11:27:27;;;;;;;47.65;28.13;;;16.60;99.90;;;;;;5121050;27;20047;-65
2022/05/07 11:29:56;;;;;;;45.60;27.42;;;16.60;99.90;;;;;;5113367;27;20051;-65
2022/05/07 11:32:22;;;;;;;41.50;26.45;;;16.70;99.90;;;;;;5125094;27;20862;-66
2022/05/07 11:34:54;;;;;;;37.58;23.80;;;16.70;99.90;;;;;;5122144;27;20081;-66
2022/05/07 11:37:22;;;;;;;29.33;18.13;;;16.80;99.90;;;;;;5132531;27;20408;-66
2022/05/07 11:39:55;;;;;;;25.40;16.42;;;16.90;99.90;;;;;;5121772;27;20065;-66
2022/05/07 11:42:32;;;;;;;17.40;9.95;;;16.80;99.90;;;;;;5125561;27;20043;-66
2022/05/07 11:48:09;;;;;;;15.85;9.30;;;16.70;99.90;;;;;;5122913;28;20055;-65
2022/05/07 11:50:43;;;;;;;13.20;8.40;;;16.80;99.90;;;;;;5117700;27;20138;-65
2022/05/07 11:53:20;;;;;;;15.73;9.20;;;16.80;99.90;;;;;;5112786;27;20035;-65
2022/05/07 11:55:47;;;;;;;18.27;9.80;;;16.90;99.90;;;;;;5118970;27;20158;-65
2022/05/07 11:58:18;;;;;;;18.95;10.90;;;17.10;99.90;;;;;;5132439;27;20043;-65
2022/05/07 12:00:45;;;;;;;17.60;10.90;;;17.30;99.90;;;;;;5102957;28;20039;-67
2022/05/07 12:03:15;;;;;;;18.73;11.60;;;17.40;99.90;;;;;;5132694;27;20522;-65
2022/05/07 12:06:01;;;;;;;18.95;10.52;;;17.60;99.90;;;;;;5131074;27;20046;-65
2022/05/07 12:08:34;;;;;;;16.70;11.02;;;17.70;99.90;;;;;;5132405;27;20138;-65
2022/05/07 12:11:02;;;;;;;18.40;11.70;;;17.80;99.90;;;;;;5121045;27;20036;-65
2022/05/07 12:13:28;;;;;;;20.60;11.55;;;17.80;99.90;;;;;;5112552;27;20036;-65
2022/05/07 12:18:42;;;;;;;19.63;11.38;;;17.70;99.90;;;;;;5120921;27;20050;-65
2022/05/07 12:21:08;;;;;;;23.50;11.80;;;17.60;99.90;;;;;;5131041;27;20043;-66
2022/05/07 12:31:49;;;;;;;15.27;9.05;;;17.50;99.90;;;;;;5120687;27;20097;-65
2022/05/07 12:34:15;;;;;;;16.90;10.13;;;17.40;99.90;;;;;;5113729;27;20047;-65
2022/05/07 12:36:41;;;;;;;14.70;9.45;;;17.20;99.90;;;;;;5118503;27;20048;-65
2022/05/07 12:39:06;;;;;;;15.57;9.60;;;17.30;99.90;;;;;;5130039;27;20044;-65
2022/05/07 12:41:32;;;;;;;15.60;9.15;;;17.30;99.90;;;;;;5130526;27;20422;-66
2022/05/07 12:44:01;;;;;;;17.05;10.45;;;17.30;99.90;;;;;;5120678;27;20039;-65
2022/05/07 12:46:27;;;;;;;18.38;10.57;;;17.30;99.90;;;;;;5111091;28;20122;-65
2022/05/07 12:48:56;;;;;;;17.65;11.48;;;17.30;99.90;;;;;;5110807;27;20036;-65
2022/05/07 12:51:22;;;;;;;19.15;11.90;;;17.40;99.90;;;;;;5123641;27;20051;-65
2022/05/07 12:53:49;;;;;;;18.45;11.57;;;17.50;99.90;;;;;;5112259;27;20162;-65
2022/05/07 12:56:14;;;;;;;24.77;15.10;;;17.60;99.90;;;;;;5127942;27;20124;-65
2022/05/07 12:58:40;;;;;;;24.48;15.10;;;17.40;99.90;;;;;;5112696;27;20039;-65
2022/05/07 13:01:06;;;;;;;22.08;13.73;;;17.20;99.90;;;;;;5129970;27;20035;-66
2022/05/07 13:03:31;;;;;;;22.10;13.40;;;17.10;99.90;;;;;;5110574;28;20051;-66
2022/05/07 13:05:57;;;;;;;19.10;13.25;;;17.00;99.90;;;;;;5118331;27;20412;-65
2022/05/07 13:08:23;;;;;;;20.73;13.25;;;17.00;99.90;;;;;;5123993;27;20130;-65
2022/05/07 13:10:48;;;;;;;16.83;11.65;;;16.90;99.90;;;;;;5112744;27;20077;-65
2022/05/07 13:13:18;;;;;;;18.33;11.93;;;16.90;99.90;;;;;;5129772;27;20035;-65